createdAt,value
2019-04-19T00:01:34.232Z,71.58
2019-04-19T00:04:06.939Z,71.31
2019-04-19T00:06:36.462Z,70.76
2019-04-19T00:09:16.266Z,70.70
2019-04-19T00:11:38.292Z,70.80
2019-04-19T00:14:02.018Z,71.00
2019-04-19T00:16:29.988Z,70.98
2019-04-19T00:19:21.258Z,70.99
2019-04-19T00:21:49.362Z,71.21
2019-04-19T00:23:58.308Z,71.10
2019-04-19T00:26:27.452Z,71.53
2019-04-19T00:29:01.006Z,71.98
2019-04-19T00:31:33.833Z,72.80
2019-04-19T00:33:58.021Z,72.83
2019-04-19T00:36:25.467Z,73.06
2019-04-19T00:39:15.383Z,73.63
2019-04-19T00:41:54.554Z,73.70
2019-04-19T00:44:35.325Z,73.98
2019-04-19T00:47:02.820Z,74.32
2019-04-19T00:49:21.282Z,74.47
2019-04-19T00:51:56.491Z,74.67
2019-04-19T00:54:17.860Z,74.87
2019-04-19T00:56:46.656Z,75.25
2019-04-19T00:59:10.169Z,75.60
2019-04-19T01:01:37.420Z,75.66
2019-04-19T01:04:11.759Z,75.60
2019-04-19T01:06:44.003Z,75.93
2019-04-19T01:09:22.727Z,76.87
2019-04-19T01:11:51.686Z,77.73
2019-04-19T01:14:18.360Z,78.67
2019-04-19T01:16:51.560Z,78.75
2019-04-19T01:19:08.034Z,78.82
2019-04-19T01:21:34.330Z,79.23
2019-04-19T01:24:04.887Z,80.14
2019-04-19T01:26:39.969Z,80.51
2019-04-19T01:29:06.234Z,80.24
2019-04-19T01:31:32.508Z,80.21
2019-04-19T01:34:03.872Z,80.05
2019-04-19T01:36:34.917Z,80.10
2019-04-19T01:39:17.945Z,80.17
2019-04-19T01:41:41.799Z,80.11
2019-04-19T01:44:23.874Z,80.52
2019-04-19T01:46:59.436Z,80.48
2019-04-19T01:49:46.244Z,80.77
2019-04-19T01:52:13.074Z,80.97
2019-04-19T01:54:42.231Z,81.56
2019-04-19T01:56:58.208Z,81.42
2019-04-19T01:59:31.505Z,81.86
2019-04-19T02:01:59.470Z,81.69
2019-04-19T02:04:26.684Z,82.23
2019-04-19T02:06:53.049Z,81.90
2019-04-19T02:09:32.706Z,82.01
2019-04-19T02:12:17.350Z,82.48
2019-04-19T02:14:39.499Z,82.74
2019-04-19T02:17:04.248Z,84.16
2019-04-19T02:19:29.748Z,84.06
2019-04-19T02:22:00.127Z,84.07
2019-04-19T02:24:34.677Z,84.05
2019-04-19T02:27:02.520Z,84.64
2019-04-19T02:29:29.659Z,84.59
2019-04-19T02:37:33.381Z,84.29
2019-04-19T02:39:55.833Z,84.02
2019-04-19T02:47:34.679Z,85.57
2019-04-19T02:49:51.616Z,86.45
2019-04-19T02:52:29.421Z,86.91
2019-04-19T02:57:32.814Z,86.49
2019-04-19T03:00:12.983Z,86.14
2019-04-19T03:05:13.105Z,86.50
2019-04-19T03:07:17.689Z,87.01
2019-04-19T03:09:46.892Z,86.39
2019-04-19T03:12:35.133Z,86.45
2019-04-19T03:15:03.134Z,86.36
2019-04-19T03:17:33.629Z,86.52
2019-04-19T03:20:04.082Z,86.56
2019-04-19T03:22:29.463Z,86.44
2019-04-19T03:25:03.498Z,86.64
2019-04-19T03:27:20.291Z,86.27
2019-04-19T03:29:45.260Z,86.76
2019-04-19T03:35:01.160Z,87.00
2019-04-19T03:37:44.985Z,86.90
2019-04-19T03:40:08.553Z,86.93
2019-04-19T03:45:22.007Z,86.87
2019-04-19T03:47:44.579Z,86.96
2019-04-19T03:50:10.553Z,87.25
2019-04-19T03:52:36.911Z,86.99
2019-04-19T03:55:09.105Z,87.14
2019-04-19T03:57:31.252Z,87.46
2019-04-19T03:59:48.618Z,87.34
2019-04-19T04:02:24.482Z,87.49
2019-04-19T04:04:57.237Z,87.26
2019-04-19T04:07:20.810Z,87.64
2019-04-19T04:09:51.754Z,87.50
2019-04-19T04:12:32.271Z,87.75
2019-04-19T04:15:07.270Z,88.05
2019-04-19T04:17:26.870Z,87.89
2019-04-19T04:19:55.184Z,88.21
2019-04-19T04:22:29.710Z,88.29
2019-04-19T04:25:01.838Z,88.58
2019-04-19T04:27:36.523Z,88.72
2019-04-19T04:30:04.660Z,88.71
2019-04-19T04:32:40.550Z,89.35
2019-04-19T04:35:08.827Z,89.67
2019-04-19T04:37:39.749Z,90.11
2019-04-19T04:39:51.340Z,90.08
2019-04-19T04:42:26.591Z,90.16
2019-04-19T04:45:15.317Z,90.25
2019-04-19T04:47:37.092Z,90.17
2019-04-19T04:50:11.251Z,91.12
2019-04-19T04:52:35.651Z,91.44
2019-04-19T04:55:09.261Z,91.16
2019-04-19T04:57:45.873Z,91.49
2019-04-19T05:00:08.039Z,91.58
2019-04-19T05:02:53.705Z,91.64
2019-04-19T05:05:25.876Z,91.45
2019-04-19T05:08:00.227Z,91.24
2019-04-19T05:10:24.913Z,90.89
2019-04-19T05:13:12.378Z,90.50
2019-04-19T05:15:26.391Z,90.27
2019-04-19T05:18:03.252Z,90.20
2019-04-19T05:20:27.878Z,90.19
2019-04-19T05:22:58.923Z,89.92
2019-04-19T05:25:33.410Z,89.66
2019-04-19T05:27:55.543Z,89.58
2019-04-19T05:30:07.107Z,89.56
2019-04-19T05:32:37.438Z,89.74
2019-04-19T05:35:19.430Z,89.62
2019-04-19T05:37:58.382Z,89.34
2019-04-19T05:40:32.055Z,89.24
2019-04-19T05:42:59.157Z,89.22
2019-04-19T05:45:40.521Z,89.03
2019-04-19T05:47:53.694Z,88.90
2019-04-19T05:50:31.891Z,88.66
2019-04-19T05:52:55.081Z,88.53
2019-04-19T05:55:11.602Z,88.38
2019-04-19T05:57:53.728Z,88.23
2019-04-19T06:00:21.691Z,88.29
2019-04-19T06:02:53.576Z,88.29
2019-04-19T06:05:37.659Z,88.11
2019-04-19T06:07:49.064Z,88.12
2019-04-19T06:10:10.628Z,87.91
2019-04-19T06:12:38.916Z,87.95
2019-04-19T06:15:25.812Z,87.78
2019-04-19T06:17:58.788Z,87.87
2019-04-19T06:20:26.463Z,87.82
2019-04-19T06:22:58.012Z,87.90
2019-04-19T06:25:35.582Z,87.83
2019-04-19T06:28:21.064Z,87.63
2019-04-19T06:30:35.010Z,87.51
2019-04-19T06:32:57.739Z,87.12
2019-04-19T06:35:22.575Z,86.58
2019-04-19T06:37:37.646Z,86.70
2019-04-19T06:40:14.618Z,86.67
2019-04-19T06:42:46.452Z,86.59
2019-04-19T06:45:22.685Z,86.72
2019-04-19T06:47:45.049Z,86.75
2019-04-19T06:50:07.405Z,86.57
2019-04-19T06:52:37.926Z,86.11
2019-04-19T06:55:14.182Z,85.62
2019-04-19T06:57:46.695Z,85.49
2019-04-19T07:00:20.561Z,85.29
2019-04-19T07:02:37.112Z,85.30
2019-04-19T07:05:20.388Z,84.84
2019-04-19T07:08:07.220Z,85.12
2019-04-19T07:10:39.586Z,84.75
2019-04-19T07:12:55.324Z,85.17
2019-04-19T07:15:36.749Z,84.56
2019-04-19T07:17:50.744Z,83.59
2019-04-19T07:20:23.038Z,82.30
2019-04-19T07:22:52.098Z,80.94
2019-04-19T07:25:30.460Z,79.51
2019-04-19T07:27:48.954Z,78.37
2019-04-19T07:30:07.278Z,76.01
2019-04-19T07:32:43.880Z,75.64
2019-04-19T07:35:22.377Z,75.61
2019-04-19T07:37:52.689Z,76.00
2019-04-19T07:40:23.596Z,74.06
2019-04-19T07:42:51.059Z,73.03
2019-04-19T07:45:08.787Z,72.46
2019-04-19T07:47:43.855Z,72.22
2019-04-19T07:50:16.288Z,70.63
2019-04-19T07:52:42.479Z,68.61
2019-04-19T07:55:08.229Z,64.35
2019-04-19T07:58:06.362Z,63.90
2019-04-19T08:00:44.997Z,63.83
2019-04-19T08:12:55.098Z,59.09
2019-04-19T08:15:22.434Z,58.88
2019-04-19T08:27:31.009Z,55.73
2019-04-19T08:29:58.273Z,55.89
2019-04-19T08:32:21.555Z,55.02
2019-04-19T08:34:55.766Z,54.73
2019-04-19T08:37:25.368Z,54.52
2019-04-19T08:40:08.632Z,53.62
2019-04-19T08:42:34.356Z,54.54
2019-04-19T08:44:55.830Z,54.77
2019-04-19T08:47:28.698Z,53.51
2019-04-19T08:49:52.923Z,53.62
2019-04-19T08:52:27.226Z,53.24
2019-04-19T08:55:09.404Z,52.90
2019-04-19T08:57:22.638Z,52.85
2019-04-19T09:00:12.383Z,52.77
2019-04-19T09:02:34.424Z,52.25
2019-04-19T09:05:04.924Z,52.15
2019-04-19T09:10:18.493Z,51.92
2019-04-19T09:12:26.938Z,51.35
2019-04-19T09:15:02.162Z,51.42
2019-04-19T09:17:39.027Z,51.57
2019-04-19T09:20:11.370Z,50.14
2019-04-19T09:22:34.328Z,50.25
2019-04-19T09:24:50.261Z,49.30
2019-04-19T09:27:34.758Z,47.22
2019-04-19T09:29:58.506Z,45.14
2019-04-19T09:32:13.957Z,45.34
2019-04-19T09:34:43.929Z,44.84
2019-04-19T09:37:13.341Z,42.12
2019-04-19T09:39:47.524Z,42.47
2019-04-19T09:42:13.843Z,40.99
2019-04-19T09:44:40.177Z,40.20
2019-04-19T09:47:03.975Z,40.33
2019-04-19T09:49:46.245Z,40.27
2019-04-19T09:52:23.930Z,38.40
2019-04-19T09:54:55.586Z,37.05
2019-04-19T09:57:13.250Z,38.20
2019-04-19T09:59:31.048Z,38.53
2019-04-19T10:01:58.906Z,37.49
2019-04-19T10:04:23.082Z,36.36
2019-04-19T10:06:51.127Z,36.98
2019-04-19T10:09:22.071Z,36.99
2019-04-19T10:11:47.102Z,37.27
2019-04-19T10:14:15.107Z,36.35
2019-04-19T10:16:44.433Z,34.70
2019-04-19T10:19:12.790Z,35.92
2019-04-19T10:21:49.328Z,34.40
2019-04-19T10:24:19.663Z,35.12
2019-04-19T10:26:48.387Z,34.50
2019-04-19T10:29:24.601Z,33.08
2019-04-19T10:31:46.808Z,33.70
2019-04-19T10:34:16.431Z,33.69
2019-04-19T10:36:46.180Z,32.90
2019-04-19T10:39:16.854Z,33.44
2019-04-19T10:41:44.037Z,33.26
2019-04-19T10:44:15.465Z,31.82
2019-04-19T10:46:40.655Z,32.76
2019-04-19T10:49:14.846Z,32.28
2019-04-19T10:51:47.271Z,32.84
2019-04-19T10:54:14.908Z,32.87
2019-04-19T10:56:56.816Z,32.21
2019-04-19T10:59:24.686Z,32.46
2019-04-19T11:01:52.329Z,31.79
2019-04-19T11:04:20.615Z,32.00
2019-04-19T11:06:47.866Z,32.85
2019-04-19T11:09:14.853Z,33.04
2019-04-19T11:11:41.695Z,33.20
2019-04-19T11:14:10.120Z,33.64
2019-04-19T11:16:37.598Z,32.92
2019-04-19T11:19:14.206Z,33.01
2019-04-19T11:21:33.911Z,32.95
2019-04-19T11:24:01.883Z,33.47
2019-04-19T11:26:28.885Z,33.33
2019-04-19T11:28:56.792Z,33.26
2019-04-19T11:31:41.681Z,32.61
2019-04-19T11:34:09.029Z,32.98
2019-04-19T11:36:35.977Z,33.70
2019-04-19T11:39:05.233Z,33.94
2019-04-19T11:41:33.336Z,33.50
2019-04-19T11:44:06.203Z,33.92
2019-04-19T11:46:30.262Z,33.38
2019-04-19T11:48:57.661Z,33.61
2019-04-19T11:51:25.687Z,34.23
2019-04-19T11:53:52.539Z,33.64
2019-04-19T11:56:22.614Z,34.07
2019-04-19T11:58:52.823Z,34.85
2019-04-19T12:01:21.778Z,33.50
2019-04-19T12:03:50.030Z,33.09
2019-04-19T12:06:18.387Z,32.91
2019-04-19T12:08:46.423Z,32.99
2019-04-19T12:11:15.975Z,32.75
2019-04-19T12:13:43.741Z,33.44
2019-04-19T12:16:10.916Z,32.22
2019-04-19T12:18:40.015Z,31.21
2019-04-19T12:21:07.276Z,32.01
2019-04-19T12:23:34.772Z,31.68
2019-04-19T12:26:01.875Z,31.08
2019-04-19T12:28:29.977Z,30.61
2019-04-19T12:30:58.634Z,31.00
2019-04-19T12:33:25.507Z,30.54
2019-04-19T12:35:53.073Z,30.69
2019-04-19T12:38:19.963Z,30.16
2019-04-19T12:40:49.913Z,29.41
2019-04-19T12:43:17.941Z,29.49
2019-04-19T12:45:50.186Z,29.46
2019-04-19T12:48:14.721Z,28.92
2019-04-19T12:50:42.113Z,29.35
2019-04-19T12:53:09.547Z,27.89
2019-04-19T12:55:37.827Z,27.37
2019-04-19T12:58:05.967Z,27.79
2019-04-19T13:00:45.882Z,28.30
2019-04-19T13:03:18.017Z,27.52
2019-04-19T13:05:46.765Z,28.74
2019-04-19T13:08:14.941Z,27.94
2019-04-19T13:10:42.968Z,28.01
2019-04-19T13:13:09.964Z,27.92
2019-04-19T13:15:36.912Z,27.96
2019-04-19T13:18:04.377Z,28.18
2019-04-19T13:20:35.358Z,27.65
2019-04-19T13:23:02.098Z,27.36
2019-04-19T13:25:29.336Z,27.29
2019-04-19T13:27:59.620Z,27.44
2019-04-19T13:30:35.919Z,28.06
2019-04-19T13:32:54.907Z,27.53
2019-04-19T13:35:23.427Z,28.10
2019-04-19T13:37:55.068Z,27.16
2019-04-19T13:40:30.348Z,27.50
2019-04-19T13:43:00.055Z,28.06
2019-04-19T13:45:31.324Z,28.33
2019-04-19T13:47:56.593Z,28.83
2019-04-19T13:50:30.314Z,29.12
2019-04-19T13:52:52.960Z,29.54
2019-04-19T13:55:20.984Z,29.92
2019-04-19T13:57:47.867Z,29.81
2019-04-19T14:00:22.696Z,29.03
2019-04-19T14:02:49.577Z,29.84
2019-04-19T14:05:17.808Z,29.43
2019-04-19T14:07:45.329Z,29.55
2019-04-19T14:10:14.998Z,30.24
2019-04-19T14:12:45.272Z,29.05
2019-04-19T14:15:15.228Z,29.79
2019-04-19T14:17:45.487Z,30.37
2019-04-19T14:20:20.295Z,30.38
2019-04-19T14:22:41.753Z,30.11
2019-04-19T14:25:09.551Z,30.07
2019-04-19T14:27:37.488Z,29.90
2019-04-19T14:30:06.502Z,30.20
2019-04-19T14:32:33.760Z,30.76
2019-04-19T14:35:01.987Z,31.41
2019-04-19T14:37:29.882Z,31.41
2019-04-19T14:39:58.492Z,32.44
2019-04-19T14:42:28.398Z,32.13
2019-04-19T14:44:58.317Z,32.62
2019-04-19T14:47:28.636Z,32.58
2019-04-19T14:49:58.911Z,32.50
2019-04-19T14:52:30.135Z,33.10
2019-04-19T14:54:57.631Z,33.14
2019-04-19T14:57:24.978Z,33.75
2019-04-19T14:59:56.855Z,32.54
2019-04-19T15:02:45.743Z,32.89
2019-04-19T15:05:17.482Z,33.52
2019-04-19T15:07:44.790Z,33.81
2019-04-19T15:10:13.534Z,33.72
2019-04-19T15:12:41.183Z,33.90
2019-04-19T15:15:08.666Z,34.69
2019-04-19T15:17:35.950Z,34.56
2019-04-19T15:20:05.837Z,34.71
2019-04-19T15:22:35.770Z,34.24
2019-04-19T15:25:06.587Z,34.54
2019-04-19T15:27:37.088Z,34.80
2019-04-19T15:30:07.846Z,34.98
2019-04-19T15:32:36.263Z,34.92
2019-04-19T15:35:05.700Z,34.47
2019-04-19T15:37:33.925Z,34.79
2019-04-19T15:40:02.352Z,34.51
2019-04-19T15:42:32.460Z,34.53
2019-04-19T15:45:00.694Z,34.30
2019-04-19T15:47:28.670Z,34.42
2019-04-19T15:50:00.023Z,34.40
2019-04-19T15:52:28.223Z,34.62
2019-04-19T15:54:56.440Z,34.97
2019-04-19T15:57:28.126Z,35.45
2019-04-19T16:00:02.309Z,35.19
2019-04-19T16:02:30.283Z,35.11
2019-04-19T16:05:14.215Z,34.44
2019-04-19T16:07:55.843Z,34.73
2019-04-19T16:10:40.272Z,35.03
2019-04-19T16:13:08.139Z,35.36
2019-04-19T16:15:36.061Z,35.57
2019-04-19T16:18:04.086Z,35.72
2019-04-19T16:20:33.629Z,35.49
2019-04-19T16:23:04.162Z,35.63
2019-04-19T16:25:33.814Z,35.79
2019-04-19T16:28:01.334Z,35.65
2019-04-19T16:30:30.426Z,36.18
2019-04-19T16:32:59.698Z,35.53
2019-04-19T16:35:28.370Z,35.75
2019-04-19T16:37:55.883Z,35.90
2019-04-19T16:40:24.597Z,36.01
2019-04-19T16:42:59.463Z,36.08
2019-04-19T16:45:36.042Z,36.23
2019-04-19T16:48:12.949Z,36.42
2019-04-19T16:50:48.619Z,36.69
2019-04-19T16:53:22.187Z,36.92
2019-04-19T16:55:57.423Z,36.62
2019-04-19T16:58:32.987Z,36.47
2019-04-19T17:01:00.908Z,36.74
2019-04-19T17:03:28.144Z,36.89
2019-04-19T17:05:56.950Z,36.92
2019-04-19T17:08:27.290Z,36.89
2019-04-19T17:10:55.524Z,37.21
2019-04-19T17:13:22.772Z,37.48
2019-04-19T17:15:56.981Z,37.56
2019-04-19T17:18:38.949Z,37.37
2019-04-19T17:21:15.501Z,37.52
2019-04-19T17:23:42.740Z,38.00
2019-04-19T17:26:10.851Z,37.81
2019-04-19T17:28:39.014Z,37.99
2019-04-19T17:31:06.425Z,38.00
2019-04-19T17:33:33.462Z,38.20
2019-04-19T17:36:00.261Z,38.56
2019-04-19T17:38:38.361Z,38.51
2019-04-19T17:40:58.685Z,38.94
2019-04-19T17:43:27.938Z,39.27
2019-04-19T17:45:56.901Z,39.63
2019-04-19T17:48:26.331Z,40.16
2019-04-19T17:50:53.647Z,40.32
2019-04-19T17:53:25.230Z,40.71
2019-04-19T17:55:53.081Z,40.90
2019-04-19T17:58:19.235Z,41.08
2019-04-19T18:00:48.881Z,41.37
2019-04-19T18:03:17.283Z,41.46
2019-04-19T18:05:45.540Z,41.70
2019-04-19T18:08:20.357Z,42.05
2019-04-19T18:10:46.844Z,42.00
2019-04-19T18:13:10.858Z,42.25
2019-04-19T18:15:38.636Z,42.18
2019-04-19T18:18:08.322Z,42.66
2019-04-19T18:20:34.964Z,42.79
2019-04-19T18:23:08.674Z,42.71
2019-04-19T18:25:35.149Z,42.72
2019-04-19T18:28:06.154Z,42.66
2019-04-19T18:30:33.698Z,42.65
2019-04-19T18:33:04.349Z,42.33
2019-04-19T18:35:35.161Z,42.13
2019-04-19T18:38:01.010Z,42.04
2019-04-19T18:40:29.256Z,42.03
2019-04-19T18:43:12.472Z,41.97
2019-04-19T18:45:28.570Z,41.92
2019-04-19T18:47:54.837Z,41.98
2019-04-19T18:50:22.438Z,41.93
2019-04-19T18:52:58.797Z,41.87
2019-04-19T18:55:28.773Z,41.92
2019-04-19T18:57:49.424Z,42.01
2019-04-19T19:00:18.559Z,42.12
2019-04-19T19:02:51.646Z,42.18
2019-04-19T19:05:16.264Z,42.24
2019-04-19T19:07:43.581Z,42.38
2019-04-19T19:10:18.759Z,42.63
2019-04-19T19:12:45.146Z,42.76
2019-04-19T19:15:10.309Z,42.90
2019-04-19T19:17:38.185Z,43.02
2019-04-19T19:20:14.185Z,43.19
2019-04-19T19:22:55.949Z,43.31
2019-04-19T19:25:24.721Z,43.50
2019-04-19T19:27:37.854Z,43.75
2019-04-19T19:30:09.035Z,43.91
2019-04-19T19:32:35.938Z,44.08
2019-04-19T19:35:09.194Z,44.21
2019-04-19T19:37:36.386Z,44.18
2019-04-19T19:40:09.800Z,44.22
2019-04-19T19:42:51.812Z,44.32
2019-04-19T19:45:21.653Z,44.33
2019-04-19T19:48:13.233Z,44.46
2019-04-19T19:51:01.570Z,44.63
2019-04-19T19:53:07.578Z,44.93
2019-04-19T19:55:36.089Z,45.16
2019-04-19T19:57:58.548Z,45.33
2019-04-19T20:00:30.845Z,45.37
2019-04-19T20:03:01.639Z,45.72
2019-04-19T20:05:25.725Z,46.08
2019-04-19T20:07:51.746Z,46.63
2019-04-19T20:10:21.171Z,46.67
2019-04-19T20:12:55.628Z,46.75
2019-04-19T20:15:18.613Z,47.19
2019-04-19T20:17:51.002Z,47.35
2019-04-19T20:20:16.279Z,47.59
2019-04-19T20:22:45.889Z,47.46
2019-04-19T20:25:25.753Z,47.45
2019-04-19T20:27:46.670Z,47.53
2019-04-19T20:30:11.731Z,47.67
2019-04-19T20:32:38.883Z,47.81
2019-04-19T20:35:15.130Z,48.13
2019-04-19T20:37:35.452Z,48.37
2019-04-19T20:40:09.406Z,48.45
2019-04-19T20:43:00.000Z,49.00
2019-04-19T20:45:08.907Z,49.39
2019-04-19T20:47:33.122Z,49.49
2019-04-19T20:50:11.868Z,49.75
2019-04-19T20:52:45.439Z,50.17
2019-04-19T20:55:20.351Z,50.42
2019-04-19T20:57:51.362Z,50.61
2019-04-19T21:00:10.021Z,50.95
2019-04-19T21:02:40.272Z,51.24
2019-04-19T21:05:08.182Z,51.42
2019-04-19T21:07:38.561Z,51.68
2019-04-19T21:10:10.821Z,51.87
2019-04-19T21:12:36.660Z,51.86
2019-04-19T21:15:13.813Z,51.74
2019-04-19T21:17:42.395Z,51.85
2019-04-19T21:20:04.911Z,52.15
2019-04-19T21:22:36.510Z,52.11
2019-04-19T21:25:10.218Z,52.27
2019-04-19T21:27:32.300Z,52.12
2019-04-19T21:30:02.414Z,52.03
2019-04-19T21:32:30.920Z,52.09
2019-04-19T21:35:00.995Z,52.28
2019-04-19T21:37:31.777Z,52.84
2019-04-19T21:39:54.984Z,53.13
2019-04-19T21:42:24.413Z,53.96
2019-04-19T21:44:56.701Z,54.58
2019-04-19T21:47:20.057Z,55.34
2019-04-19T21:49:50.891Z,55.58
2019-04-19T21:52:20.908Z,56.55
2019-04-19T21:54:47.699Z,57.29
2019-04-19T21:57:18.683Z,57.45
2019-04-19T21:59:44.180Z,57.31
2019-04-19T22:02:17.697Z,57.61
2019-04-19T22:04:47.734Z,57.84
2019-04-19T22:07:12.978Z,57.89
2019-04-19T22:09:43.385Z,57.73
2019-04-19T22:12:10.239Z,58.27
2019-04-19T22:14:38.224Z,58.14
2019-04-19T22:17:10.992Z,58.46
2019-04-19T22:19:36.667Z,58.89
2019-04-19T22:22:04.371Z,59.07
2019-04-19T22:24:34.702Z,59.47
2019-04-19T22:27:00.923Z,59.34
2019-04-19T22:29:27.771Z,59.57
2019-04-19T22:31:56.540Z,59.47
2019-04-19T22:34:24.398Z,59.50
2019-04-19T22:36:53.436Z,60.70
2019-04-19T22:39:21.309Z,61.54
2019-04-19T22:41:48.729Z,61.49
2019-04-19T22:44:16.630Z,61.11
2019-04-19T22:46:49.438Z,61.18
2019-04-19T22:49:14.635Z,61.26
2019-04-19T22:51:41.040Z,61.46
2019-04-19T22:54:08.569Z,62.22
2019-04-19T22:56:48.162Z,63.10
2019-04-19T22:59:11.062Z,63.32
2019-04-19T23:01:57.328Z,63.45
2019-04-19T23:04:24.166Z,63.59
2019-04-19T23:06:54.573Z,63.78
2019-04-19T23:09:22.811Z,63.86
2019-04-19T23:11:48.589Z,63.79
2019-04-19T23:14:22.169Z,63.58
2019-04-19T23:16:50.505Z,63.27
2019-04-19T23:19:14.788Z,63.11
2019-04-19T23:21:48.415Z,63.33
2019-04-19T23:24:14.975Z,63.54
2019-04-19T23:27:00.753Z,63.57
2019-04-19T23:29:12.068Z,63.56
2019-04-19T23:31:44.195Z,63.41
2019-04-19T23:34:10.614Z,63.53
2019-04-19T23:36:39.486Z,63.30
2019-04-19T23:39:11.077Z,63.19
2019-04-19T23:41:37.219Z,63.28
2019-04-19T23:44:12.296Z,64.17
2019-04-19T23:46:37.074Z,64.61
2019-04-19T23:49:08.689Z,65.17
2019-04-19T23:51:33.485Z,66.18
2019-04-19T23:54:03.586Z,66.75
2019-04-19T23:56:38.361Z,67.14
2019-04-19T23:59:06.004Z,67.55
